Downing, Wisconsin
Current Conditions -  °F | °C
As of 5:15 PM on Friday 19 Dec 2014 (Local Time) from KLUM Reporting Station
Overcast Overcast  
Wind Chill: 21°   Ceiling: 2600
Heat Index: 28°   Visibility: 10mi
Dew Point: 21°   Wind: 7mph
Humidity: 74%   Direction: 130°SE
Pressure: 30.24"   Gusts: NA
Location:  45.05°N, 92.13°W
Report Text: KLUM 192315Z AUTO 13006KT 10SM SCT020 OVC026 M02/M06 A3024 RMK AO2 T10221062
Loading
Personal Weather Stations






























Interactive Weather Map New forecast layout! Learn more

10-Day Weather Forecast

Advertisements
Track Severe Weather on mobile